sensor_id;sensor_type;location;lat;lon;timestamp;pressure;altitude;pressure_sealevel;temperature;humidity
34586;BME280;20816;50.950;11.108;2022-11-20T00:01:20;98072.19;;;-6.23;100.00
34586;BME280;20816;50.950;11.108;2022-11-20T00:03:47;98070.53;;;-6.21;100.00
34586;BME280;20816;50.950;11.108;2022-11-20T00:06:16;98074.69;;;-6.25;100.00
34586;BME280;20816;50.950;11.108;2022-11-20T00:08:44;98077.41;;;-6.20;100.00
34586;BME280;20816;50.950;11.108;2022-11-20T00:11:15;98064.41;;;-6.26;100.00
34586;BME280;20816;50.950;11.108;2022-11-20T00:13:43;98073.84;;;-6.25;100.00
34586;BME280;20816;50.950;11.108;2022-11-20T00:16:11;98064.34;;;-6.28;100.00
34586;BME280;20816;50.950;11.108;2022-11-20T00:18:38;98065.25;;;-6.27;100.00
34586;BME280;20816;50.950;11.108;2022-11-20T00:21:15;98056.63;;;-6.29;100.00
34586;BME280;20816;50.950;11.108;2022-11-20T00:23:42;98065.03;;;-6.33;100.00
34586;BME280;20816;50.950;11.108;2022-11-20T00:26:12;98053.69;;;-6.40;100.00
34586;BME280;20816;50.950;11.108;2022-11-20T00:28:40;98051.84;;;-6.44;100.00
34586;BME280;20816;50.950;11.108;2022-11-20T00:31:09;98062.72;;;-6.50;100.00
34586;BME280;20816;50.950;11.108;2022-11-20T00:33:37;98056.28;;;-6.62;100.00
34586;BME280;20816;50.950;11.108;2022-11-20T00:36:06;98057.16;;;-6.62;100.00
34586;BME280;20816;50.950;11.108;2022-11-20T00:38:34;98056.16;;;-6.67;100.00
34586;BME280;20816;50.950;11.108;2022-11-20T00:41:03;98063.56;;;-6.73;100.00
34586;BME280;20816;50.950;11.108;2022-11-20T00:43:30;98060.09;;;-6.75;100.00
34586;BME280;20816;50.950;11.108;2022-11-20T00:46:01;98053.59;;;-6.67;100.00
34586;BME280;20816;50.950;11.108;2022-11-20T00:48:28;98066.94;;;-6.74;100.00
34586;BME280;20816;50.950;11.108;2022-11-20T00:50:55;98058.22;;;-6.79;100.00
34586;BME280;20816;50.950;11.108;2022-11-20T00:53:22;98065.03;;;-6.80;100.00
34586;BME280;20816;50.950;11.108;2022-11-20T00:56:00;98065.22;;;-6.75;100.00
34586;BME280;20816;50.950;11.108;2022-11-20T00:58:35;98062.75;;;-6.72;100.00
34586;BME280;20816;50.950;11.108;2022-11-20T01:01:08;98058.69;;;-6.67;100.00
34586;BME280;20816;50.950;11.108;2022-11-20T01:03:37;98058.63;;;-6.68;100.00
34586;BME280;20816;50.950;11.108;2022-11-20T01:06:14;98062.28;;;-6.62;100.00
34586;BME280;20816;50.950;11.108;2022-11-20T01:08:42;98061.25;;;-6.67;100.00
34586;BME280;20816;50.950;11.108;2022-11-20T01:11:15;98059.44;;;-6.69;100.00
34586;BME280;20816;50.950;11.108;2022-11-20T01:13:42;98055.84;;;-6.74;100.00
34586;BME280;20816;50.950;11.108;2022-11-20T01:16:20;98065.66;;;-6.63;100.00
34586;BME280;20816;50.950;11.108;2022-11-20T01:18:50;98064.00;;;-6.61;100.00
34586;BME280;20816;50.950;11.108;2022-11-20T01:23:45;98062.50;;;-6.56;100.00
34586;BME280;20816;50.950;11.108;2022-11-20T01:26:15;98068.09;;;-6.66;100.00
34586;BME280;20816;50.950;11.108;2022-11-20T01:28:43;98074.13;;;-6.64;100.00
34586;BME280;20816;50.950;11.108;2022-11-20T01:31:11;98066.75;;;-6.56;100.00
34586;BME280;20816;50.950;11.108;2022-11-20T01:33:40;98067.63;;;-6.56;100.00
34586;BME280;20816;50.950;11.108;2022-11-20T01:36:09;98070.13;;;-6.57;100.00
34586;BME280;20816;50.950;11.108;2022-11-20T01:38:35;98068.66;;;-6.51;100.00
34586;BME280;20816;50.950;11.108;2022-11-20T01:41:03;98065.97;;;-6.54;100.00
34586;BME280;20816;50.950;11.108;2022-11-20T01:43:29;98056.53;;;-6.56;100.00
34586;BME280;20816;50.950;11.108;2022-11-20T01:46:19;98057.16;;;-6.62;100.00
34586;BME280;20816;50.950;11.108;2022-11-20T01:51:20;98054.75;;;-6.59;100.00
34586;BME280;20816;50.950;11.108;2022-11-20T01:53:49;98061.34;;;-6.64;100.00
34586;BME280;20816;50.950;11.108;2022-11-20T01:56:18;98052.28;;;-6.56;100.00
34586;BME280;20816;50.950;11.108;2022-11-20T01:58:52;98042.06;;;-6.56;100.00
34586;BME280;20816;50.950;11.108;2022-11-20T02:01:20;98040.56;;;-6.51;100.00
34586;BME280;20816;50.950;11.108;2022-11-20T02:03:49;98038.91;;;-6.48;100.00
34586;BME280;20816;50.950;11.108;2022-11-20T02:06:32;98043.28;;;-6.44;100.00
34586;BME280;20816;50.950;11.108;2022-11-20T02:09:02;98032.28;;;-6.43;100.00
34586;BME280;20816;50.950;11.108;2022-11-20T02:11:30;98041.75;;;-6.41;100.00
34586;BME280;20816;50.950;11.108;2022-11-20T02:13:57;98040.88;;;-6.41;100.00
34586;BME280;20816;50.950;11.108;2022-11-20T02:18:56;98032.38;;;-6.40;100.00
34586;BME280;20816;50.950;11.108;2022-11-20T02:24:21;98019.34;;;-6.48;100.00
34586;BME280;20816;50.950;11.108;2022-11-20T02:26:54;98022.97;;;-6.41;100.00
34586;BME280;20816;50.950;11.108;2022-11-20T02:29:29;98016.13;;;-6.42;100.00
34586;BME280;20816;50.950;11.108;2022-11-20T02:31:58;98007.75;;;-6.38;100.00
34586;BME280;20816;50.950;11.108;2022-11-20T02:34:27;98007.75;;;-6.38;100.00
34586;BME280;20816;50.950;11.108;2022-11-20T02:36:55;98009.44;;;-6.39;100.00
34586;BME280;20816;50.950;11.108;2022-11-20T02:39:24;97995.78;;;-6.39;100.00
34586;BME280;20816;50.950;11.108;2022-11-20T02:41:53;97996.69;;;-6.37;100.00
34586;BME280;20816;50.950;11.108;2022-11-20T02:44:20;97999.25;;;-6.37;100.00
34586;BME280;20816;50.950;11.108;2022-11-20T02:46:47;98001.81;;;-6.37;100.00
34586;BME280;20816;50.950;11.108;2022-11-20T02:49:13;97999.25;;;-6.37;100.00
34586;BME280;20816;50.950;11.108;2022-11-20T02:51:40;97989.06;;;-6.36;100.00
34586;BME280;20816;50.950;11.108;2022-11-20T02:54:06;97998.56;;;-6.33;100.00
34586;BME280;20816;50.950;11.108;2022-11-20T02:56:33;98000.97;;;-6.36;100.00
34586;BME280;20816;50.950;11.108;2022-11-20T02:59:00;98000.25;;;-6.34;100.00
34586;BME280;20816;50.950;11.108;2022-11-20T03:01:26;98008.66;;;-6.36;100.00
34586;BME280;20816;50.950;11.108;2022-11-20T03:03:53;97997.63;;;-6.35;100.00
34586;BME280;20816;50.950;11.108;2022-11-20T03:06:21;98008.56;;;-6.39;100.00
34586;BME280;20816;50.950;11.108;2022-11-20T03:08:48;98011.72;;;-6.46;100.00
34586;BME280;20816;50.950;11.108;2022-11-20T03:11:14;98004.78;;;-6.51;100.00
34586;BME280;20816;50.950;11.108;2022-11-20T03:13:41;97997.91;;;-6.52;100.00
34586;BME280;20816;50.950;11.108;2022-11-20T03:16:13;98001.63;;;-6.43;100.00
34586;BME280;20816;50.950;11.108;2022-11-20T03:18:41;98008.47;;;-6.42;100.00
34586;BME280;20816;50.950;11.108;2022-11-20T03:21:09;98010.06;;;-6.44;100.00
34586;BME280;20816;50.950;11.108;2022-11-20T03:23:36;98001.53;;;-6.45;100.00
34586;BME280;20816;50.950;11.108;2022-11-20T03:26:12;98003.22;;;-6.45;100.00
34586;BME280;20816;50.950;11.108;2022-11-20T03:28:40;98002.25;;;-6.49;100.00
34586;BME280;20816;50.950;11.108;2022-11-20T03:31:12;98001.94;;;-6.58;100.00
34586;BME280;20816;50.950;11.108;2022-11-20T03:33:40;98001.06;;;-6.59;100.00
34586;BME280;20816;50.950;11.108;2022-11-20T03:36:10;98002.59;;;-6.64;100.00
34586;BME280;20816;50.950;11.108;2022-11-20T03:38:37;98000.84;;;-6.65;100.00
34586;BME280;20816;50.950;11.108;2022-11-20T03:41:19;97996.16;;;-6.53;100.00
34586;BME280;20816;50.950;11.108;2022-11-20T03:46:16;98000.22;;;-6.59;100.00
34586;BME280;20816;50.950;11.108;2022-11-20T03:48:42;97995.97;;;-6.59;100.00
34586;BME280;20816;50.950;11.108;2022-11-20T03:53:45;97989.91;;;-6.61;100.00
34586;BME280;20816;50.950;11.108;2022-11-20T03:56:14;97990.09;;;-6.56;100.00
34586;BME280;20816;50.950;11.108;2022-11-20T03:58:41;97989.34;;;-6.52;100.00
34586;BME280;20816;50.950;11.108;2022-11-20T04:01:12;97985.63;;;-6.62;100.00
34586;BME280;20816;50.950;11.108;2022-11-20T04:03:40;97980.41;;;-6.65;100.00
34586;BME280;20816;50.950;11.108;2022-11-20T04:06:10;97980.91;;;-6.75;100.00
34586;BME280;20816;50.950;11.108;2022-11-20T04:08:37;97982.59;;;-6.75;100.00
34586;BME280;20816;50.950;11.108;2022-11-20T04:13:35;97982.03;;;-6.91;100.00
34586;BME280;20816;50.950;11.108;2022-11-20T04:16:02;97989.28;;;-7.01;100.00
34586;BME280;20816;50.950;11.108;2022-11-20T04:18:29;97982.44;;;-7.02;100.00
34586;BME280;20816;50.950;11.108;2022-11-20T04:20:57;97976.41;;;-7.04;100.00
34586;BME280;20816;50.950;11.108;2022-11-20T04:23:24;97977.78;;;-7.14;100.00
34586;BME280;20816;50.950;11.108;2022-11-20T04:25:54;97982.00;;;-7.15;100.00
34586;BME280;20816;50.950;11.108;2022-11-20T04:28:21;97984.50;;;-7.16;100.00
34586;BME280;20816;50.950;11.108;2022-11-20T04:30:47;97973.44;;;-7.17;100.00
34586;BME280;20816;50.950;11.108;2022-11-20T04:33:14;97977.38;;;-7.25;100.00
34586;BME280;20816;50.950;11.108;2022-11-20T04:35:40;97973.44;;;-7.39;100.00
34586;BME280;20816;50.950;11.108;2022-11-20T04:38:07;97989.06;;;-7.52;100.00
34586;BME280;20816;50.950;11.108;2022-11-20T04:40:34;97988.97;;;-7.55;100.00
34586;BME280;20816;50.950;11.108;2022-11-20T04:43:02;97987.09;;;-7.59;100.00
34586;BME280;20816;50.950;11.108;2022-11-20T04:45:29;97983.00;;;-7.56;100.00
34586;BME280;20816;50.950;11.108;2022-11-20T04:47:55;97988.81;;;-7.58;100.00
34586;BME280;20816;50.950;11.108;2022-11-20T04:50:22;97983.00;;;-7.56;100.00
34586;BME280;20816;50.950;11.108;2022-11-20T04:52:49;97979.94;;;-7.47;100.00
34586;BME280;20816;50.950;11.108;2022-11-20T04:55:15;97981.19;;;-7.36;100.00
34586;BME280;20816;50.950;11.108;2022-11-20T04:57:42;97980.66;;;-7.27;100.00
34586;BME280;20816;50.950;11.108;2022-11-20T05:00:10;97974.53;;;-7.32;100.00
34586;BME280;20816;50.950;11.108;2022-11-20T05:02:37;97989.41;;;-7.43;100.00
34586;BME280;20816;50.950;11.108;2022-11-20T05:05:04;97995.28;;;-7.46;100.00
34586;BME280;20816;50.950;11.108;2022-11-20T05:07:31;97995.91;;;-7.51;100.00
34586;BME280;20816;50.950;11.108;2022-11-20T05:09:57;97993.34;;;-7.51;100.00
34586;BME280;20816;50.950;11.108;2022-11-20T05:12:24;97996.56;;;-7.57;100.00
34586;BME280;20816;50.950;11.108;2022-11-20T05:14:51;97995.81;;;-7.54;100.00
34586;BME280;20816;50.950;11.108;2022-11-20T05:17:17;97983.44;;;-7.44;100.00
34586;BME280;20816;50.950;11.108;2022-11-20T05:19:44;97983.06;;;-7.32;100.00
34586;BME280;20816;50.950;11.108;2022-11-20T05:22:17;97987.16;;;-7.13;100.00
34586;BME280;20816;50.950;11.108;2022-11-20T05:24:43;97979.84;;;-7.04;100.00
34586;BME280;20816;50.950;11.108;2022-11-20T05:27:10;97982.44;;;-7.02;100.00
34586;BME280;20816;50.950;11.108;2022-11-20T05:29:37;97973.75;;;-7.08;100.00
34586;BME280;20816;50.950;11.108;2022-11-20T05:32:04;97970.69;;;-6.99;100.00
34586;BME280;20816;50.950;11.108;2022-11-20T05:34:32;97969.09;;;-6.95;100.00
34586;BME280;20816;50.950;11.108;2022-11-20T05:36:59;97972.78;;;-6.87;100.00
34586;BME280;20816;50.950;11.108;2022-11-20T05:39:25;97979.97;;;-6.77;100.00
34586;BME280;20816;50.950;11.108;2022-11-20T05:41:52;97983.56;;;-6.72;100.00
34586;BME280;20816;50.950;11.108;2022-11-20T05:44:39;97983.19;;;-6.83;100.00
34586;BME280;20816;50.950;11.108;2022-11-20T05:47:06;97986.88;;;-6.98;100.00
34586;BME280;20816;50.950;11.108;2022-11-20T05:49:32;97988.56;;;-6.99;100.00
34586;BME280;20816;50.950;11.108;2022-11-20T05:51:59;97990.56;;;-6.90;100.00
34586;BME280;20816;50.950;11.108;2022-11-20T05:54:26;97988.66;;;-6.72;100.00
34586;BME280;20816;50.950;11.108;2022-11-20T05:56:53;97987.69;;;-6.52;100.00
34586;BME280;20816;50.950;11.108;2022-11-20T05:59:19;97983.00;;;-6.39;100.00
34586;BME280;20816;50.950;11.108;2022-11-20T06:01:46;97985.88;;;-6.30;100.00
34586;BME280;20816;50.950;11.108;2022-11-20T06:04:13;97988.53;;;-6.27;100.00
34586;BME280;20816;50.950;11.108;2022-11-20T06:06:39;97981.88;;;-6.22;100.00
34586;BME280;20816;50.950;11.108;2022-11-20T06:09:06;97989.16;;;-6.09;100.00
34586;BME280;20816;50.950;11.108;2022-11-20T06:11:33;97986.06;;;-5.99;100.00
34586;BME280;20816;50.950;11.108;2022-11-20T06:13:59;97973.88;;;-5.79;100.00
34586;BME280;20816;50.950;11.108;2022-11-20T06:16:26;97976.88;;;-5.65;100.00
34586;BME280;20816;50.950;11.108;2022-11-20T06:18:53;97964.66;;;-5.47;100.00
34586;BME280;20816;50.950;11.108;2022-11-20T06:21:21;97967.78;;;-5.28;100.00
34586;BME280;20816;50.950;11.108;2022-11-20T06:23:49;97960.47;;;-5.15;100.00
34586;BME280;20816;50.950;11.108;2022-11-20T06:26:19;97961.72;;;-5.02;100.00
34586;BME280;20816;50.950;11.108;2022-11-20T06:28:46;97951.13;;;-4.84;100.00
34586;BME280;20816;50.950;11.108;2022-11-20T06:31:14;97955.81;;;-4.69;100.00
34586;BME280;20816;50.950;11.108;2022-11-20T06:33:42;97954.25;;;-4.64;100.00
34586;BME280;20816;50.950;11.108;2022-11-20T06:36:11;97951.84;;;-4.57;100.00
34586;BME280;20816;50.950;11.108;2022-11-20T06:38:38;97959.06;;;-4.43;100.00
34586;BME280;20816;50.950;11.108;2022-11-20T06:41:07;97959.06;;;-4.43;100.00
34586;BME280;20816;50.950;11.108;2022-11-20T06:43:35;97957.38;;;-4.43;100.00
34586;BME280;20816;50.950;11.108;2022-11-20T06:46:01;97955.59;;;-4.45;100.00
34586;BME280;20816;50.950;11.108;2022-11-20T06:48:29;97956.63;;;-4.39;100.00
34586;BME280;20816;50.950;11.108;2022-11-20T06:50:56;97947.22;;;-4.40;100.00
34586;BME280;20816;50.950;11.108;2022-11-20T06:53:24;97950.56;;;-4.41;100.00
34586;BME280;20816;50.950;11.108;2022-11-20T06:55:51;97945.72;;;-4.32;100.00
34586;BME280;20816;50.950;11.108;2022-11-20T06:58:18;97939.00;;;-4.25;100.00
34586;BME280;20816;50.950;11.108;2022-11-20T07:00:45;97948.75;;;-4.13;100.00
34586;BME280;20816;50.950;11.108;2022-11-20T07:03:12;97943.84;;;-4.04;100.00
34586;BME280;20816;50.950;11.108;2022-11-20T07:05:39;97938.84;;;-3.98;100.00
34586;BME280;20816;50.950;11.108;2022-11-20T07:08:07;97938.91;;;-3.95;100.00
34586;BME280;20816;50.950;11.108;2022-11-20T07:10:34;97942.53;;;-3.87;100.00
34586;BME280;20816;50.950;11.108;2022-11-20T07:13:01;97941.00;;;-3.80;100.00
34586;BME280;20816;50.950;11.108;2022-11-20T07:15:28;97939.44;;;-3.74;100.00
34586;BME280;20816;50.950;11.108;2022-11-20T07:17:54;97942.13;;;-3.68;100.00
34586;BME280;20816;50.950;11.108;2022-11-20T07:20:21;97942.28;;;-3.61;100.00
34586;BME280;20816;50.950;11.108;2022-11-20T07:22:53;97944.09;;;-3.57;100.00
34586;BME280;20816;50.950;11.108;2022-11-20T07:25:20;97934.66;;;-3.58;100.00
34586;BME280;20816;50.950;11.108;2022-11-20T07:27:47;97936.41;;;-3.57;100.00
34586;BME280;20816;50.950;11.108;2022-11-20T07:30:14;97939.88;;;-3.55;100.00
34586;BME280;20816;50.950;11.108;2022-11-20T07:32:41;97937.38;;;-3.51;100.00
34586;BME280;20816;50.950;11.108;2022-11-20T07:35:08;97933.13;;;-3.50;100.00
34586;BME280;20816;50.950;11.108;2022-11-20T07:37:35;97935.78;;;-3.46;100.00
34586;BME280;20816;50.950;11.108;2022-11-20T07:40:02;97931.81;;;-3.33;100.00
34586;BME280;20816;50.950;11.108;2022-11-20T07:42:29;97918.38;;;-3.20;100.00
34586;BME280;20816;50.950;11.108;2022-11-20T07:44:55;97933.19;;;-3.08;100.00
34586;BME280;20816;50.950;11.108;2022-11-20T07:47:22;97930.84;;;-2.97;100.00
34586;BME280;20816;50.950;11.108;2022-11-20T07:49:49;97929.28;;;-2.89;100.00
34586;BME280;20816;50.950;11.108;2022-11-20T07:52:15;97923.56;;;-2.76;100.00
34586;BME280;20816;50.950;11.108;2022-11-20T07:54:42;97916.78;;;-2.71;100.00
34586;BME280;20816;50.950;11.108;2022-11-20T07:57:09;97912.72;;;-2.60;100.00
34586;BME280;20816;50.950;11.108;2022-11-20T07:59:36;97909.53;;;-2.46;100.00
34586;BME280;20816;50.950;11.108;2022-11-20T08:02:05;97902.88;;;-2.35;100.00
34586;BME280;20816;50.950;11.108;2022-11-20T08:04:31;97905.63;;;-2.26;100.00
34586;BME280;20816;50.950;11.108;2022-11-20T08:06:59;97908.47;;;-2.11;100.00
34586;BME280;20816;50.950;11.108;2022-11-20T08:09:26;97906.88;;;-2.03;100.00
34586;BME280;20816;50.950;11.108;2022-11-20T08:11:53;97906.94;;;-1.97;100.00
34586;BME280;20816;50.950;11.108;2022-11-20T08:14:38;97905.38;;;-1.88;100.00
34586;BME280;20816;50.950;11.108;2022-11-20T08:17:05;97912.41;;;-1.78;100.00
34586;BME280;20816;50.950;11.108;2022-11-20T08:19:32;97912.59;;;-1.66;100.00
34586;BME280;20816;50.950;11.108;2022-11-20T08:21:59;97914.38;;;-1.62;100.00
34586;BME280;20816;50.950;11.108;2022-11-20T08:24:26;97908.50;;;-1.53;100.00
34586;BME280;20816;50.950;11.108;2022-11-20T08:26:52;97904.31;;;-1.47;100.00
34586;BME280;20816;50.950;11.108;2022-11-20T08:29:19;97906.91;;;-1.44;100.00
34586;BME280;20816;50.950;11.108;2022-11-20T08:31:46;97912.84;;;-1.48;100.00
34586;BME280;20816;50.950;11.108;2022-11-20T08:34:13;97913.78;;;-1.44;100.00
34586;BME280;20816;50.950;11.108;2022-11-20T08:36:44;97920.47;;;-1.55;100.00
34586;BME280;20816;50.950;11.108;2022-11-20T08:39:12;97913.53;;;-1.62;100.00
34586;BME280;20816;50.950;11.108;2022-11-20T08:41:39;97917.72;;;-1.69;100.00
34586;BME280;20816;50.950;11.108;2022-11-20T08:44:06;97930.59;;;-1.67;100.00
34586;BME280;20816;50.950;11.108;2022-11-20T08:46:41;97922.91;;;-1.66;100.00
34586;BME280;20816;50.950;11.108;2022-11-20T08:49:11;97927.88;;;-1.77;100.00
34586;BME280;20816;50.950;11.108;2022-11-20T08:51:39;97926.19;;;-1.76;100.00
34586;BME280;20816;50.950;11.108;2022-11-20T08:54:06;97926.22;;;-1.73;100.00
34586;BME280;20816;50.950;11.108;2022-11-20T08:56:33;97917.59;;;-1.75;100.00
34586;BME280;20816;50.950;11.108;2022-11-20T08:59:00;97926.31;;;-1.67;100.00
34586;BME280;20816;50.950;11.108;2022-11-20T09:01:47;97919.47;;;-1.65;100.00
34586;BME280;20816;50.950;11.108;2022-11-20T09:04:14;97929.84;;;-1.62;100.00
34586;BME280;20816;50.950;11.108;2022-11-20T09:06:41;97928.19;;;-1.57;100.00
34586;BME280;20816;50.950;11.108;2022-11-20T09:09:08;97924.81;;;-1.53;100.00
34586;BME280;20816;50.950;11.108;2022-11-20T09:11:35;97922.28;;;-1.48;100.00
34586;BME280;20816;50.950;11.108;2022-11-20T09:14:02;97916.44;;;-1.38;100.00
34586;BME280;20816;50.950;11.108;2022-11-20T09:16:31;97923.44;;;-1.29;100.00
34586;BME280;20816;50.950;11.108;2022-11-20T09:18:58;97922.69;;;-1.22;100.00
34586;BME280;20816;50.950;11.108;2022-11-20T09:21:45;97915.91;;;-1.14;100.00
34586;BME280;20816;50.950;11.108;2022-11-20T09:24:11;97913.47;;;-1.03;100.00
34586;BME280;20816;50.950;11.108;2022-11-20T09:26:38;97913.56;;;-0.96;100.00
34586;BME280;20816;50.950;11.108;2022-11-20T09:29:05;97914.34;;;-1.03;100.00
34586;BME280;20816;50.950;11.108;2022-11-20T09:31:32;97911.91;;;-0.91;100.00
34586;BME280;20816;50.950;11.108;2022-11-20T09:33:59;97907.75;;;-0.81;100.00
34586;BME280;20816;50.950;11.108;2022-11-20T09:36:25;97903.41;;;-0.82;100.00
34586;BME280;20816;50.950;11.108;2022-11-20T09:38:52;97917.97;;;-0.89;100.00
34586;BME280;20816;50.950;11.108;2022-11-20T09:47:12;97902.59;;;-0.79;100.00
34586;BME280;20816;50.950;11.108;2022-11-20T09:55:29;97899.22;;;-0.72;100.00
34586;BME280;20816;50.950;11.108;2022-11-20T09:57:58;97906.88;;;-0.81;100.00
34586;BME280;20816;50.950;11.108;2022-11-20T10:00:27;97900.88;;;-0.79;100.00
34586;BME280;20816;50.950;11.108;2022-11-20T10:03:06;97899.94;;;-0.86;100.00
34586;BME280;20816;50.950;11.108;2022-11-20T10:08:19;97898.31;;;-0.77;100.00
34586;BME280;20816;50.950;11.108;2022-11-20T10:10:56;97902.59;;;-0.79;100.00
34586;BME280;20816;50.950;11.108;2022-11-20T10:19:35;97897.13;;;-1.05;100.00
34586;BME280;20816;50.950;11.108;2022-11-20T10:24:52;97903.16;;;-1.02;100.00
34586;BME280;20816;50.950;11.108;2022-11-20T10:30:10;97892.81;;;-1.05;100.00
34586;BME280;20816;50.950;11.108;2022-11-20T10:32:40;97887.66;;;-1.05;100.00
34586;BME280;20816;50.950;11.108;2022-11-20T10:35:18;97885.13;;;-1.02;100.00
34586;BME280;20816;50.950;11.108;2022-11-20T10:37:50;97886.09;;;-0.91;100.00
34586;BME280;20816;50.950;11.108;2022-11-20T10:43:32;97892.97;;;-0.93;100.00
34586;BME280;20816;50.950;11.108;2022-11-20T10:46:12;97890.47;;;-0.88;100.00
34586;BME280;20816;50.950;11.108;2022-11-20T10:48:43;97894.00;;;-0.80;100.00
34586;BME280;20816;50.950;11.108;2022-11-20T10:51:54;97896.50;;;-0.85;100.00
34586;BME280;20816;50.950;11.108;2022-11-20T10:59:38;97883.63;;;-0.83;100.00
34586;BME280;20816;50.950;11.108;2022-11-20T11:02:21;97886.94;;;-0.95;100.00
34586;BME280;20816;50.950;11.108;2022-11-20T11:04:51;97889.50;;;-0.95;100.00
34586;BME280;20816;50.950;11.108;2022-11-20T11:07:31;97891.13;;;-1.03;100.00
34586;BME280;20816;50.950;11.108;2022-11-20T11:10:05;97890.38;;;-0.94;100.00
34586;BME280;20816;50.950;11.108;2022-11-20T11:12:44;97886.16;;;-0.89;100.00
34586;BME280;20816;50.950;11.108;2022-11-20T11:15:14;97891.25;;;-0.91;100.00
34586;BME280;20816;50.950;11.108;2022-11-20T11:17:47;97895.63;;;-0.87;100.00
34586;BME280;20816;50.950;11.108;2022-11-20T11:20:16;97892.19;;;-0.86;100.00
34586;BME280;20816;50.950;11.108;2022-11-20T11:22:52;97890.44;;;-0.90;100.00
34586;BME280;20816;50.950;11.108;2022-11-20T11:25:22;97887.91;;;-0.83;100.00
34586;BME280;20816;50.950;11.108;2022-11-20T11:27:50;97884.47;;;-0.86;100.00
34586;BME280;20816;50.950;11.108;2022-11-20T11:30:19;97878.44;;;-0.85;100.00
34586;BME280;20816;50.950;11.108;2022-11-20T11:32:46;97868.19;;;-0.78;100.00
34586;BME280;20816;50.950;11.108;2022-11-20T11:35:21;97867.44;;;-0.68;100.00
34586;BME280;20816;50.950;11.108;2022-11-20T11:37:48;97866.56;;;-0.73;100.00
34586;BME280;20816;50.950;11.108;2022-11-20T11:40:17;97858.00;;;-0.68;100.00
34586;BME280;20816;50.950;11.108;2022-11-20T11:43:01;97867.50;;;-0.65;100.00
34586;BME280;20816;50.950;11.108;2022-11-20T11:45:28;97856.34;;;-0.61;100.00
34586;BME280;20816;50.950;11.108;2022-11-20T11:47:58;97853.75;;;-0.61;100.00
34586;BME280;20816;50.950;11.108;2022-11-20T11:50:28;97855.53;;;-0.57;100.00
34586;BME280;20816;50.950;11.108;2022-11-20T11:53:17;97850.38;;;-0.55;100.00
34586;BME280;20816;50.950;11.108;2022-11-20T11:56:10;97846.94;;;-0.56;100.00
34586;BME280;20816;50.950;11.108;2022-11-20T11:58:48;97843.41;;;-0.64;100.00
34586;BME280;20816;50.950;11.108;2022-11-20T12:06:44;97825.44;;;-0.57;100.00
34586;BME280;20816;50.950;11.108;2022-11-20T12:09:13;97819.41;;;-0.57;100.00
34586;BME280;20816;50.950;11.108;2022-11-20T12:11:49;97821.22;;;-0.47;100.00
34586;BME280;20816;50.950;11.108;2022-11-20T12:14:21;97814.34;;;-0.43;100.00
34586;BME280;20816;50.950;11.108;2022-11-20T12:16:53;97815.22;;;-0.44;100.00
34586;BME280;20816;50.950;11.108;2022-11-20T12:19:22;97814.34;;;-0.42;100.00
34586;BME280;20816;50.950;11.108;2022-11-20T12:22:21;97812.63;;;-0.46;100.00
34586;BME280;20816;50.950;11.108;2022-11-20T12:25:00;97811.91;;;-0.31;100.00
34586;BME280;20816;50.950;11.108;2022-11-20T12:30:16;97816.22;;;-0.27;100.00
34586;BME280;20816;50.950;11.108;2022-11-20T12:33:03;97818.84;;;-0.19;100.00
34586;BME280;20816;50.950;11.108;2022-11-20T12:38:51;97821.56;;;-0.07;100.00
34586;BME280;20816;50.950;11.108;2022-11-20T12:44:39;97824.16;;;-0.04;100.00
34586;BME280;20816;50.950;11.108;2022-11-20T12:53:01;97824.94;;;-0.14;100.00
34586;BME280;20816;50.950;11.108;2022-11-20T12:58:13;97819.84;;;-0.01;100.00
34586;BME280;20816;50.950;11.108;2022-11-20T13:01:05;97820.66;;;-0.09;100.00
34586;BME280;20816;50.950;11.108;2022-11-20T13:03:45;97806.84;;;-0.16;100.00
34586;BME280;20816;50.950;11.108;2022-11-20T13:06:18;97806.91;;;-0.08;100.00
34586;BME280;20816;50.950;11.108;2022-11-20T13:08:51;97816.50;;;0.08;100.00
34586;BME280;20816;50.950;11.108;2022-11-20T13:17:58;97801.06;;;0.17;100.00
34586;BME280;20816;50.950;11.108;2022-11-20T13:20:26;97806.25;;;0.23;100.00
34586;BME280;20816;50.950;11.108;2022-11-20T13:22:55;97809.78;;;0.38;100.00
34586;BME280;20816;50.950;11.108;2022-11-20T13:25:30;97808.00;;;0.31;100.00
34586;BME280;20816;50.950;11.108;2022-11-20T13:28:40;97801.09;;;0.26;100.00
34586;BME280;20816;50.950;11.108;2022-11-20T13:30:52;97805.38;;;0.17;100.00
34586;BME280;20816;50.950;11.108;2022-11-20T13:33:35;97806.22;;;0.20;100.00
34586;BME280;20816;50.950;11.108;2022-11-20T13:36:06;97802.81;;;0.24;100.00
34586;BME280;20816;50.950;11.108;2022-11-20T13:38:49;97805.38;;;0.20;100.00
34586;BME280;20816;50.950;11.108;2022-11-20T13:41:30;97816.56;;;0.17;100.00
34586;BME280;20816;50.950;11.108;2022-11-20T13:46:44;97807.09;;;0.18;100.00
34586;BME280;20816;50.950;11.108;2022-11-20T13:51:49;97821.72;;;0.17;100.00
34586;BME280;20816;50.950;11.108;2022-11-20T13:57:27;97826.00;;;0.15;100.00
34586;BME280;20816;50.950;11.108;2022-11-20T14:02:44;97823.44;;;0.18;100.00
34586;BME280;20816;50.950;11.108;2022-11-20T14:05:22;97828.63;;;0.18;100.00
34586;BME280;20816;50.950;11.108;2022-11-20T14:07:51;97813.97;;;0.23;100.00
34586;BME280;20816;50.950;11.108;2022-11-20T14:10:25;97814.84;;;0.19;100.00
34586;BME280;20816;50.950;11.108;2022-11-20T14:12:57;97816.56;;;0.20;100.00
34586;BME280;20816;50.950;11.108;2022-11-20T14:15:29;97810.44;;;0.06;100.00
34586;BME280;20816;50.950;11.108;2022-11-20T14:17:57;97815.63;;;0.09;100.00
34586;BME280;20816;50.950;11.108;2022-11-20T14:20:28;97800.09;;;0.02;100.00
34586;BME280;20816;50.950;11.108;2022-11-20T14:22:55;97801.75;;;-0.05;100.00
34586;BME280;20816;50.950;11.108;2022-11-20T14:25:25;97799.06;;;-0.17;100.00
34586;BME280;20816;50.950;11.108;2022-11-20T14:27:58;97794.75;;;-0.21;100.00